Time;durP1;ratioP1;P1;durP2;ratioP2;P2;SDS_P1;SDS_P2;PMS_P1;PMS_P2;Temp;Humidity;BMP_temperature;BMP_pressure;BME280_temperature;BME280_humidity;BME280_pressure;Samples;Min_cycle;Max_cycle;Signal;HPM_P1;HPM_P2
2021/12/01 00:00:29;;;;;;;7.43;4.35;;;;;;;;;;5077369;28;20494;-79
2021/12/01 00:02:55;;;;;;;7.43;3.38;;;;;;;;;;5077329;28;20412;-79
2021/12/01 00:05:21;;;;;;;7.00;3.83;;;;;;;;;;5077273;28;20453;-79
2021/12/01 00:07:48;;;;;;;11.15;5.20;;;;;;;;;;5077252;28;20107;-79
2021/12/01 00:10:13;;;;;;;10.52;4.88;;;;;;;;;;5076844;28;20031;-79
2021/12/01 00:12:39;;;;;;;11.95;5.65;;;;;;;;;;5077165;28;20032;-79
2021/12/01 00:15:05;;;;;;;14.13;5.50;;;;;;;;;;5077054;28;20450;-79
2021/12/01 00:17:31;;;;;;;12.55;5.85;;;;;;;;;;5076953;28;20028;-78
2021/12/01 00:19:56;;;;;;;8.80;4.60;;;;;;;;;;5077049;28;20028;-79
2021/12/01 00:22:26;;;;;;;15.23;5.63;;;;;;;;;;5076341;28;20071;-79
2021/12/01 00:24:51;;;;;;;10.38;4.45;;;;;;;;;;5075603;28;20059;-78
2021/12/01 00:27:17;;;;;;;7.32;3.88;;;;;;;;;;5076032;28;20068;-78
2021/12/01 00:29:43;;;;;;;9.93;4.25;;;;;;;;;;5077588;28;20405;-78
2021/12/01 00:32:08;;;;;;;10.57;5.07;;;;;;;;;;5084865;28;20040;-78
2021/12/01 00:34:34;;;;;;;6.93;4.28;;;;;;;;;;5077741;28;20469;-78
2021/12/01 00:36:59;;;;;;;8.45;3.90;;;;;;;;;;5076663;28;20035;-79
2021/12/01 00:39:25;;;;;;;7.97;4.22;;;;;;;;;;5076319;28;20060;-79
2021/12/01 00:41:51;;;;;;;5.18;3.15;;;;;;;;;;5076549;28;20441;-79
2021/12/01 00:44:17;;;;;;;7.43;3.80;;;;;;;;;;5077615;28;20044;-78
2021/12/01 00:46:54;;;;;;;10.32;4.53;;;;;;;;;;5083144;28;20028;-78
2021/12/01 00:49:19;;;;;;;12.32;5.30;;;;;;;;;;5081017;28;20035;-78
2021/12/01 00:51:44;;;;;;;8.73;4.18;;;;;;;;;;5046346;28;20118;-78
2021/12/01 00:54:10;;;;;;;13.35;4.22;;;;;;;;;;5080330;28;20078;-79
2021/12/01 00:56:36;;;;;;;7.13;4.18;;;;;;;;;;5076419;28;20025;-79
2021/12/01 00:59:01;;;;;;;7.68;4.43;;;;;;;;;;5076369;28;20020;-78
2021/12/01 01:01:26;;;;;;;7.75;4.22;;;;;;;;;;5075719;28;20466;-78
2021/12/01 01:03:52;;;;;;;9.68;4.57;;;;;;;;;;5074672;28;20020;-79
2021/12/01 01:06:18;;;;;;;9.05;4.68;;;;;;;;;;5076193;28;20115;-78
2021/12/01 01:08:45;;;;;;;10.35;4.95;;;;;;;;;;5075010;28;20021;-78
2021/12/01 01:16:22;;;;;;;9.57;4.82;;;;;;;;;;5075037;28;20442;-78
2021/12/01 01:16:43;;;;;;;9.93;4.72;;;;;;;;;;5076234;28;20039;-78
2021/12/01 01:19:09;;;;;;;14.10;4.70;;;;;;;;;;5076199;28;20029;-78
2021/12/01 01:21:36;;;;;;;9.48;3.85;;;;;;;;;;5075902;28;20036;-78
2021/12/01 01:24:03;;;;;;;9.13;4.50;;;;;;;;;;5076110;28;20081;-78
2021/12/01 01:26:29;;;;;;;6.68;3.92;;;;;;;;;;5075842;28;20090;-78
2021/12/01 01:28:54;;;;;;;7.75;4.15;;;;;;;;;;5075764;28;20060;-78
2021/12/01 01:31:20;;;;;;;8.13;3.40;;;;;;;;;;5057946;28;20031;-79
2021/12/01 01:33:46;;;;;;;6.65;3.42;;;;;;;;;;5074399;28;20107;-79
2021/12/01 01:36:12;;;;;;;7.88;3.97;;;;;;;;;;5074132;28;20170;-79
2021/12/01 01:38:38;;;;;;;7.45;3.60;;;;;;;;;;5075361;28;20405;-79
2021/12/01 01:41:05;;;;;;;5.15;3.22;;;;;;;;;;5075394;28;20133;-79
2021/12/01 01:43:31;;;;;;;6.20;3.00;;;;;;;;;;5075528;28;20035;-79
2021/12/01 01:45:57;;;;;;;7.25;3.10;;;;;;;;;;5074338;28;20024;-79
2021/12/01 01:48:30;;;;;;;7.50;3.03;;;;;;;;;;5075343;28;20032;-78
2021/12/01 01:50:55;;;;;;;5.07;2.75;;;;;;;;;;5075083;28;20389;-78
2021/12/01 01:53:23;;;;;;;6.40;3.47;;;;;;;;;;5075210;28;20115;-79
2021/12/01 01:55:51;;;;;;;5.38;3.42;;;;;;;;;;5075199;28;20032;-78
2021/12/01 01:58:18;;;;;;;8.07;3.50;;;;;;;;;;5075145;28;20025;-79
2021/12/01 02:00:49;;;;;;;5.00;3.10;;;;;;;;;;5075129;28;20535;-79
2021/12/01 02:03:15;;;;;;;5.00;2.78;;;;;;;;;;5075626;28;20028;-79
2021/12/01 02:05:41;;;;;;;4.68;3.15;;;;;;;;;;5074824;28;20522;-79
2021/12/01 02:08:15;;;;;;;3.53;2.70;;;;;;;;;;5075265;28;20028;-79
2021/12/01 02:10:42;;;;;;;4.07;2.60;;;;;;;;;;5074883;28;20056;-78
2021/12/01 02:13:07;;;;;;;4.03;2.55;;;;;;;;;;5073433;28;20453;-79
2021/12/01 02:15:33;;;;;;;6.55;2.78;;;;;;;;;;5073715;28;20028;-78
2021/12/01 02:17:59;;;;;;;5.55;3.25;;;;;;;;;;5057107;28;20512;-79
2021/12/01 02:20:24;;;;;;;8.60;3.88;;;;;;;;;;5074382;28;20036;-79
2021/12/01 02:22:50;;;;;;;8.02;3.65;;;;;;;;;;5074768;28;20047;-79
2021/12/01 02:25:15;;;;;;;5.10;3.22;;;;;;;;;;5073488;28;20166;-78
2021/12/01 02:27:41;;;;;;;4.68;2.78;;;;;;;;;;5074530;28;20036;-79
2021/12/01 02:30:07;;;;;;;4.57;2.80;;;;;;;;;;5073396;28;20024;-79
2021/12/01 02:32:32;;;;;;;4.80;2.72;;;;;;;;;;5074487;28;20412;-79
2021/12/01 02:34:58;;;;;;;5.35;2.88;;;;;;;;;;5074277;28;20082;-79
2021/12/01 02:37:23;;;;;;;4.78;2.97;;;;;;;;;;5074297;28;20049;-79
2021/12/01 02:39:50;;;;;;;4.50;2.75;;;;;;;;;;5074426;28;20032;-79
2021/12/01 02:42:18;;;;;;;4.65;3.08;;;;;;;;;;5056593;28;20040;-79
2021/12/01 02:44:43;;;;;;;5.63;3.05;;;;;;;;;;5073252;28;20464;-78
2021/12/01 02:47:09;;;;;;;5.35;3.13;;;;;;;;;;5073234;28;20028;-80
2021/12/01 02:49:35;;;;;;;4.78;3.03;;;;;;;;;;5074133;28;20028;-79
2021/12/01 02:52:00;;;;;;;3.92;2.55;;;;;;;;;;5074374;28;20102;-79
2021/12/01 02:54:26;;;;;;;6.40;3.10;;;;;;;;;;5074271;28;20025;-79
2021/12/01 02:56:53;;;;;;;5.75;3.22;;;;;;;;;;5074243;28;20032;-79
2021/12/01 02:59:19;;;;;;;5.05;2.92;;;;;;;;;;5074208;28;20029;-79
2021/12/01 03:01:45;;;;;;;5.28;3.05;;;;;;;;;;5056236;28;20032;-79
2021/12/01 03:04:11;;;;;;;5.78;2.53;;;;;;;;;;5073960;28;20028;-79
2021/12/01 03:06:36;;;;;;;4.82;2.75;;;;;;;;;;5056168;28;20062;-78
2021/12/01 03:09:06;;;;;;;6.40;3.20;;;;;;;;;;5072866;28;20060;-79
2021/12/01 03:11:31;;;;;;;7.47;3.25;;;;;;;;;;5074233;28;20017;-79
2021/12/01 03:13:57;;;;;;;5.82;2.78;;;;;;;;;;5074070;28;20027;-79
2021/12/01 03:16:23;;;;;;;3.25;2.00;;;;;;;;;;5074042;28;20032;-79
2021/12/01 03:18:48;;;;;;;3.17;2.13;;;;;;;;;;5072733;28;20021;-79
2021/12/01 03:21:14;;;;;;;5.63;2.38;;;;;;;;;;5074017;28;20032;-79
2021/12/01 03:23:40;;;;;;;3.83;2.58;;;;;;;;;;5074683;28;20408;-79
2021/12/01 03:26:06;;;;;;;7.05;3.25;;;;;;;;;;5077649;28;20051;-78
2021/12/01 03:28:31;;;;;;;5.13;2.85;;;;;;;;;;5077000;28;20024;-78
2021/12/01 03:30:57;;;;;;;5.13;2.95;;;;;;;;;;5077967;28;20027;-79
2021/12/01 03:33:23;;;;;;;8.77;3.10;;;;;;;;;;5076527;28;20116;-79
2021/12/01 03:35:49;;;;;;;5.45;3.30;;;;;;;;;;5060117;28;20024;-79
2021/12/01 03:38:15;;;;;;;5.43;3.10;;;;;;;;;;5059948;28;20051;-79
2021/12/01 03:40:40;;;;;;;7.43;3.33;;;;;;;;;;5077727;28;20033;-79
2021/12/01 03:43:06;;;;;;;7.13;3.38;;;;;;;;;;5077847;28;20025;-79
2021/12/01 03:45:32;;;;;;;7.70;3.45;;;;;;;;;;5077676;28;20024;-79
2021/12/01 03:47:57;;;;;;;7.30;3.97;;;;;;;;;;5076257;28;20036;-80
2021/12/01 03:50:23;;;;;;;5.53;3.15;;;;;;;;;;5077591;28;20024;-78
2021/12/01 03:52:49;;;;;;;13.43;5.00;;;;;;;;;;5077611;28;20036;-78
2021/12/01 03:55:14;;;;;;;31.17;8.30;;;;;;;;;;5077580;28;20154;-78
2021/12/01 03:57:40;;;;;;;16.63;5.53;;;;;;;;;;5076354;28;20373;-77
2021/12/01 04:00:07;;;;;;;20.60;6.13;;;;;;;;;;5077488;28;20484;-77
2021/12/01 04:02:33;;;;;;;18.20;6.55;;;;;;;;;;5075889;28;20075;-77
2021/12/01 04:04:58;;;;;;;19.00;5.75;;;;;;;;;;5077256;28;20063;-78
2021/12/01 04:07:24;;;;;;;9.05;4.35;;;;;;;;;;5077238;28;20434;-77
2021/12/01 04:09:50;;;;;;;7.20;2.92;;;;;;;;;;5077331;28;20029;-78
2021/12/01 04:12:16;;;;;;;6.10;2.55;;;;;;;;;;5077202;28;20029;-78
2021/12/01 04:14:42;;;;;;;17.58;5.18;;;;;;;;;;5077246;28;20032;-78
2021/12/01 04:17:07;;;;;;;9.57;3.83;;;;;;;;;;5076839;28;20024;-77
2021/12/01 04:19:33;;;;;;;11.10;4.40;;;;;;;;;;5077097;28;20111;-78
2021/12/01 04:21:58;;;;;;;12.68;4.88;;;;;;;;;;5076988;28;20032;-78
2021/12/01 04:24:24;;;;;;;13.68;5.78;;;;;;;;;;5077028;28;20025;-78
2021/12/01 04:26:50;;;;;;;16.45;5.90;;;;;;;;;;5077071;28;20429;-78
2021/12/01 04:29:15;;;;;;;22.67;6.97;;;;;;;;;;5075821;28;20024;-78
2021/12/01 04:31:41;;;;;;;14.85;5.70;;;;;;;;;;5077177;28;20036;-78
2021/12/01 04:34:07;;;;;;;10.50;5.07;;;;;;;;;;5076940;28;20032;-78
2021/12/01 04:36:35;;;;;;;17.38;7.30;;;;;;;;;;5075414;28;20067;-77
2021/12/01 04:39:01;;;;;;;8.45;4.03;;;;;;;;;;5076627;28;20389;-77
2021/12/01 04:41:28;;;;;;;8.93;3.42;;;;;;;;;;5076715;28;20040;-77
2021/12/01 04:43:54;;;;;;;5.10;2.80;;;;;;;;;;5076718;28;20028;-78
2021/12/01 04:46:20;;;;;;;3.97;2.50;;;;;;;;;;5076423;28;20434;-77
2021/12/01 04:48:49;;;;;;;7.55;3.60;;;;;;;;;;5076550;28;20119;-77
2021/12/01 04:51:17;;;;;;;6.05;3.05;;;;;;;;;;5076450;28;20042;-78
2021/12/01 04:53:43;;;;;;;5.53;2.25;;;;;;;;;;5076595;28;20020;-78
2021/12/01 04:56:08;;;;;;;5.63;3.28;;;;;;;;;;5077021;28;20028;-78
2021/12/01 04:58:34;;;;;;;11.60;3.40;;;;;;;;;;5076481;28;20096;-78
2021/12/01 05:01:00;;;;;;;6.15;3.10;;;;;;;;;;5076037;28;20033;-78
2021/12/01 05:03:26;;;;;;;5.97;3.30;;;;;;;;;;5075096;28;20067;-78
2021/12/01 05:05:52;;;;;;;7.95;3.92;;;;;;;;;;5076240;28;20059;-78
2021/12/01 05:08:19;;;;;;;8.15;3.97;;;;;;;;;;5076191;28;20063;-78
2021/12/01 05:10:45;;;;;;;7.75;4.38;;;;;;;;;;5075542;28;20098;-78
2021/12/01 05:13:11;;;;;;;14.98;4.75;;;;;;;;;;5076105;28;20036;-78
2021/12/01 05:15:36;;;;;;;9.20;4.57;;;;;;;;;;5075821;28;20036;-78
2021/12/01 05:18:02;;;;;;;9.23;4.95;;;;;;;;;;5076014;28;20466;-78
2021/12/01 05:20:27;;;;;;;13.45;5.50;;;;;;;;;;5075809;28;20366;-78
2021/12/01 05:22:53;;;;;;;11.65;6.35;;;;;;;;;;5076118;28;20117;-78
2021/12/01 05:25:18;;;;;;;15.15;6.70;;;;;;;;;;5075893;28;20366;-78
2021/12/01 05:27:44;;;;;;;16.73;7.90;;;;;;;;;;5076319;28;20035;-78
2021/12/01 05:30:10;;;;;;;15.15;6.55;;;;;;;;;;5075544;28;20029;-78
2021/12/01 05:32:36;;;;;;;11.40;5.00;;;;;;;;;;5075883;28;20116;-78
2021/12/01 05:35:01;;;;;;;11.10;5.53;;;;;;;;;;5075704;28;20034;-78
2021/12/01 05:37:27;;;;;;;12.25;5.13;;;;;;;;;;5075596;28;20055;-78
2021/12/01 05:39:52;;;;;;;12.88;5.22;;;;;;;;;;5075625;28;20028;-78
2021/12/01 05:42:18;;;;;;;13.90;6.18;;;;;;;;;;5074316;28;20032;-78
2021/12/01 05:44:44;;;;;;;11.63;5.43;;;;;;;;;;5075273;28;20086;-79
2021/12/01 05:47:10;;;;;;;13.75;5.10;;;;;;;;;;5075499;28;20384;-77
2021/12/01 05:49:41;;;;;;;11.90;5.40;;;;;;;;;;5073604;28;20043;-78
2021/12/01 05:52:10;;;;;;;11.18;5.55;;;;;;;;;;5074849;28;20028;-78
2021/12/01 05:54:36;;;;;;;11.40;4.65;;;;;;;;;;5075668;28;20082;-78
2021/12/01 05:57:02;;;;;;;12.82;5.65;;;;;;;;;;5075594;28;20036;-79
2021/12/01 05:59:27;;;;;;;11.30;4.85;;;;;;;;;;5075691;28;20024;-79
2021/12/01 06:01:53;;;;;;;11.68;4.90;;;;;;;;;;5075416;28;20036;-78
2021/12/01 06:04:18;;;;;;;9.75;4.68;;;;;;;;;;5075328;28;20438;-79
2021/12/01 06:06:44;;;;;;;14.68;5.15;;;;;;;;;;5075179;28;20081;-78
2021/12/01 06:09:09;;;;;;;11.10;4.97;;;;;;;;;;5074867;28;20077;-79
2021/12/01 06:11:35;;;;;;;16.90;6.10;;;;;;;;;;5074701;28;20028;-78
2021/12/01 06:14:01;;;;;;;14.00;6.25;;;;;;;;;;5073749;28;20024;-78
2021/12/01 06:16:26;;;;;;;16.05;6.95;;;;;;;;;;5075066;28;20025;-78
2021/12/01 06:18:52;;;;;;;18.98;7.45;;;;;;;;;;5057103;28;20032;-79
2021/12/01 06:21:18;;;;;;;16.08;6.97;;;;;;;;;;5084484;28;20036;-78
2021/12/01 06:23:43;;;;;;;12.77;5.82;;;;;;;;;;5074717;28;20040;-78
2021/12/01 06:26:09;;;;;;;17.48;6.82;;;;;;;;;;5074630;28;20074;-79
2021/12/01 06:28:35;;;;;;;24.77;8.30;;;;;;;;;;5074591;28;20025;-78
2021/12/01 06:31:01;;;;;;;20.17;8.68;;;;;;;;;;5074487;28;20492;-79
2021/12/01 06:33:26;;;;;;;18.60;7.03;;;;;;;;;;5074761;28;20118;-79
2021/12/01 06:35:52;;;;;;;23.25;8.52;;;;;;;;;;5074456;28;20446;-79
2021/12/01 06:38:18;;;;;;;20.25;7.95;;;;;;;;;;5073112;28;20458;-78
2021/12/01 06:40:43;;;;;;;33.58;10.40;;;;;;;;;;5074339;28;20055;-78
2021/12/01 06:43:09;;;;;;;38.67;14.02;;;;;;;;;;5073128;28;20469;-78
2021/12/01 06:45:35;;;;;;;39.88;12.38;;;;;;;;;;5073086;28;20437;-79
2021/12/01 06:48:00;;;;;;;47.03;15.75;;;;;;;;;;5074379;28;20445;-79
2021/12/01 06:50:26;;;;;;;27.13;9.52;;;;;;;;;;5074195;28;20040;-79
2021/12/01 06:52:51;;;;;;;21.25;9.07;;;;;;;;;;5074095;28;20035;-78
2021/12/01 06:55:17;;;;;;;20.25;8.25;;;;;;;;;;5073813;28;20378;-78
2021/12/01 06:57:43;;;;;;;15.05;7.50;;;;;;;;;;5074383;28;20452;-79
2021/12/01 07:00:10;;;;;;;17.30;8.25;;;;;;;;;;5073272;28;20025;-78
2021/12/01 07:02:36;;;;;;;42.60;19.15;;;;;;;;;;5074123;28;20033;-78
2021/12/01 07:05:02;;;;;;;19.60;8.63;;;;;;;;;;5074418;28;20453;-78
2021/12/01 07:07:28;;;;;;;14.02;6.70;;;;;;;;;;5074024;28;20032;-79
2021/12/01 07:09:54;;;;;;;17.50;7.00;;;;;;;;;;5073851;28;20028;-76
2021/12/01 07:12:20;;;;;;;15.75;6.85;;;;;;;;;;5074055;28;20037;-75
2021/12/01 07:14:45;;;;;;;16.20;7.10;;;;;;;;;;5073810;28;20029;-75
2021/12/01 07:17:11;;;;;;;15.32;7.50;;;;;;;;;;5073819;28;20090;-75
2021/12/01 07:19:37;;;;;;;15.57;7.47;;;;;;;;;;5074171;28;20052;-78
2021/12/01 07:22:02;;;;;;;13.23;6.75;;;;;;;;;;5074555;28;20461;-78
2021/12/01 07:24:30;;;;;;;15.07;6.78;;;;;;;;;;5073676;28;20024;-79
2021/12/01 07:26:57;;;;;;;12.20;5.65;;;;;;;;;;5073747;28;20165;-78
2021/12/01 07:29:22;;;;;;;13.43;6.10;;;;;;;;;;5073836;28;20024;-79
2021/12/01 07:31:48;;;;;;;11.80;5.90;;;;;;;;;;5072878;28;20021;-79
2021/12/01 07:34:14;;;;;;;10.10;5.30;;;;;;;;;;5072560;28;20351;-79
2021/12/01 07:36:40;;;;;;;13.18;6.47;;;;;;;;;;5073765;28;20024;-79
2021/12/01 07:39:05;;;;;;;14.48;6.18;;;;;;;;;;5073344;28;20048;-78
2021/12/01 07:41:31;;;;;;;16.73;6.65;;;;;;;;;;5072481;28;20024;-79
2021/12/01 07:43:56;;;;;;;13.32;5.95;;;;;;;;;;5073684;28;20153;-79
2021/12/01 07:46:22;;;;;;;13.48;5.25;;;;;;;;;;5072513;28;20017;-79
2021/12/01 07:48:48;;;;;;;9.90;4.95;;;;;;;;;;5073612;28;20359;-79
2021/12/01 07:51:14;;;;;;;11.00;5.13;;;;;;;;;;5073676;28;20028;-79
2021/12/01 07:53:40;;;;;;;14.30;6.57;;;;;;;;;;5073313;28;20029;-79
2021/12/01 07:56:05;;;;;;;14.43;7.53;;;;;;;;;;5072394;28;20074;-79
2021/12/01 07:58:31;;;;;;;26.25;11.20;;;;;;;;;;5073557;28;20719;-79
2021/12/01 08:00:56;;;;;;;25.88;11.57;;;;;;;;;;5073621;28;20473;-78
2021/12/01 08:03:22;;;;;;;15.65;7.57;;;;;;;;;;5073463;28;20028;-79
2021/12/01 08:05:47;;;;;;;9.50;5.22;;;;;;;;;;5073383;28;20107;-78
2021/12/01 08:08:13;;;;;;;10.40;5.30;;;;;;;;;;5073263;28;20354;-78
2021/12/01 08:10:39;;;;;;;12.73;6.03;;;;;;;;;;5073483;28;20033;-79
2021/12/01 08:13:05;;;;;;;11.88;5.53;;;;;;;;;;5059372;28;20131;-78
2021/12/01 08:15:31;;;;;;;13.52;6.15;;;;;;;;;;5077434;28;20481;-77
2021/12/01 08:17:56;;;;;;;14.80;6.07;;;;;;;;;;5077100;28;20059;-77
2021/12/01 08:20:22;;;;;;;11.40;5.68;;;;;;;;;;5076820;28;20036;-78
2021/12/01 08:22:47;;;;;;;17.70;7.95;;;;;;;;;;5076474;28;20074;-78
2021/12/01 08:25:14;;;;;;;24.38;9.60;;;;;;;;;;5075450;28;20119;-79
2021/12/01 08:27:39;;;;;;;32.53;13.57;;;;;;;;;;5076837;28;20489;-77
2021/12/01 08:30:06;;;;;;;18.73;8.60;;;;;;;;;;5076744;28;20060;-77
2021/12/01 08:32:32;;;;;;;12.63;5.32;;;;;;;;;;5059077;28;20028;-78
2021/12/01 08:34:58;;;;;;;13.43;5.80;;;;;;;;;;5076691;28;20091;-76
2021/12/01 08:37:23;;;;;;;12.30;5.60;;;;;;;;;;5076369;28;20036;-76
2021/12/01 08:39:49;;;;;;;12.82;5.53;;;;;;;;;;5076642;28;20025;-75
2021/12/01 08:42:16;;;;;;;17.92;6.05;;;;;;;;;;5076809;28;20380;-77
2021/12/01 08:44:47;;;;;;;11.23;4.72;;;;;;;;;;5076912;28;20059;-77
2021/12/01 08:47:14;;;;;;;13.32;4.82;;;;;;;;;;5076524;28;20090;-76
2021/12/01 08:49:39;;;;;;;14.85;5.80;;;;;;;;;;5075540;28;20028;-78
2021/12/01 08:52:05;;;;;;;14.18;5.32;;;;;;;;;;5076166;28;20169;-77
2021/12/01 08:54:31;;;;;;;20.45;8.90;;;;;;;;;;5076400;28;20071;-79
2021/12/01 08:56:57;;;;;;;15.18;5.43;;;;;;;;;;5076328;28;20094;-83
2021/12/01 08:59:23;;;;;;;17.90;5.13;;;;;;;;;;5076052;28;20021;-78
2021/12/01 09:01:48;;;;;;;11.63;4.97;;;;;;;;;;5074797;28;20058;-79
2021/12/01 09:04:14;;;;;;;11.00;4.20;;;;;;;;;;5075811;28;20107;-78
2021/12/01 09:06:39;;;;;;;10.05;4.13;;;;;;;;;;5074265;28;20098;-78
2021/12/01 09:09:05;;;;;;;14.27;4.05;;;;;;;;;;5074965;28;20024;-78
2021/12/01 09:11:30;;;;;;;11.80;2.70;;;;;;;;;;5076088;28;20078;-78
2021/12/01 09:13:56;;;;;;;7.30;4.15;;;;;;;;;;5076026;28;20028;-78
2021/12/01 09:16:22;;;;;;;8.43;2.80;;;;;;;;;;5076173;28;20116;-79
2021/12/01 09:18:48;;;;;;;12.05;3.20;;;;;;;;;;5075447;28;20021;-79
2021/12/01 09:21:13;;;;;;;16.77;8.52;;;;;;;;;;5074044;28;20093;-79
2021/12/01 09:23:39;;;;;;;37.80;15.52;;;;;;;;;;5073123;28;20365;-77
2021/12/01 09:26:04;;;;;;;13.90;5.38;;;;;;;;;;5073645;28;20024;-78
2021/12/01 09:28:30;;;;;;;12.07;3.75;;;;;;;;;;5073257;28;20464;-79
2021/12/01 09:30:56;;;;;;;11.85;2.58;;;;;;;;;;5073016;28;20082;-77
2021/12/01 09:33:21;;;;;;;7.72;3.03;;;;;;;;;;5071981;28;20416;-79
2021/12/01 09:35:47;;;;;;;18.08;3.20;;;;;;;;;;5073277;28;20028;-77
2021/12/01 09:38:14;;;;;;;23.70;5.22;;;;;;;;;;5073707;28;20048;-77
2021/12/01 09:40:46;;;;;;;12.27;3.15;;;;;;;;;;5073660;28;20031;-77
2021/12/01 09:43:12;;;;;;;17.38;2.67;;;;;;;;;;5074458;28;20021;-77
2021/12/01 09:45:37;;;;;;;7.65;3.05;;;;;;;;;;5057919;28;20024;-77
2021/12/01 09:48:04;;;;;;;5.72;2.50;;;;;;;;;;5075303;28;20028;-78
2021/12/01 09:50:29;;;;;;;10.32;3.45;;;;;;;;;;5074948;28;20086;-78
2021/12/01 09:52:55;;;;;;;16.92;4.03;;;;;;;;;;5073814;28;20422;-78
2021/12/01 09:55:20;;;;;;;14.30;4.25;;;;;;;;;;5073938;28;20370;-79
2021/12/01 09:58:07;;;;;;;9.98;2.40;;;;;;;;;;5074997;28;20127;-79
2021/12/01 10:00:36;;;;;;;12.85;2.28;;;;;;;;;;5073684;28;20434;-78
2021/12/01 10:03:02;;;;;;;10.13;2.93;;;;;;;;;;5074973;28;20365;-79
2021/12/01 10:05:49;;;;;;;6.13;2.78;;;;;;;;;;5074641;28;20323;-78
2021/12/01 10:08:23;;;;;;;12.68;4.47;;;;;;;;;;5074882;28;20035;-78
2021/12/01 10:10:49;;;;;;;10.77;2.97;;;;;;;;;;5057265;28;20040;-79
2021/12/01 10:13:29;;;;;;;10.57;4.40;;;;;;;;;;5074713;28;20029;-78
2021/12/01 10:15:56;;;;;;;12.55;4.95;;;;;;;;;;5073423;28;20028;-78
2021/12/01 10:18:24;;;;;;;29.58;14.48;;;;;;;;;;5074113;28;20036;-78
2021/12/01 10:20:57;;;;;;;17.60;8.00;;;;;;;;;;5074732;28;20097;-78
2021/12/01 10:23:24;;;;;;;9.85;4.75;;;;;;;;;;5074499;28;20031;-78
2021/12/01 10:25:49;;;;;;;6.35;3.45;;;;;;;;;;5074524;28;20032;-79
2021/12/01 10:28:41;;;;;;;6.75;3.38;;;;;;;;;;5073382;28;20024;-78
2021/12/01 10:31:06;;;;;;;15.90;6.25;;;;;;;;;;5074612;28;20121;-79
2021/12/01 10:33:32;;;;;;;7.40;4.43;;;;;;;;;;5073200;28;20114;-79
2021/12/01 10:36:01;;;;;;;11.45;6.80;;;;;;;;;;5074109;28;20035;-82
2021/12/01 10:38:30;;;;;;;7.13;3.08;;;;;;;;;;5089859;28;20071;-80
2021/12/01 10:41:22;;;;;;;13.93;6.38;;;;;;;;;;5073067;28;20119;-79
2021/12/01 10:43:48;;;;;;;7.22;3.28;;;;;;;;;;5071240;28;20378;-78
2021/12/01 10:46:17;;;;;;;8.57;3.25;;;;;;;;;;5073167;28;20029;-79
2021/12/01 10:48:45;;;;;;;10.15;5.40;;;;;;;;;;5074135;28;20036;-79
2021/12/01 10:51:13;;;;;;;6.80;3.67;;;;;;;;;;5040113;28;20369;-78
2021/12/01 10:53:39;;;;;;;3.90;2.72;;;;;;;;;;5089439;28;20041;-77
2021/12/01 10:56:07;;;;;;;5.88;3.45;;;;;;;;;;5039736;28;20098;-79
2021/12/01 10:58:44;;;;;;;12.43;4.57;;;;;;;;;;5074186;28;20086;-79
2021/12/01 11:01:23;;;;;;;11.32;4.22;;;;;;;;;;5053403;28;20127;-79
2021/12/01 11:03:50;;;;;;;7.55;4.30;;;;;;;;;;5072560;28;20043;-79
2021/12/01 11:06:22;;;;;;;6.68;3.80;;;;;;;;;;5074039;28;20022;-78
2021/12/01 11:08:55;;;;;;;8.50;3.70;;;;;;;;;;5072923;28;20028;-78
2021/12/01 11:11:20;;;;;;;7.50;2.85;;;;;;;;;;5072938;28;20020;-78
2021/12/01 11:13:47;;;;;;;5.85;2.83;;;;;;;;;;5073825;28;20021;-78
2021/12/01 11:16:14;;;;;;;9.60;3.58;;;;;;;;;;5074292;28;20029;-79
2021/12/01 11:18:41;;;;;;;8.85;3.95;;;;;;;;;;5079006;28;20032;-78
2021/12/01 11:21:27;;;;;;;10.82;3.92;;;;;;;;;;5075465;28;20366;-78
2021/12/01 11:24:00;;;;;;;6.35;2.95;;;;;;;;;;5072392;28;20036;-79
2021/12/01 11:26:35;;;;;;;9.57;3.28;;;;;;;;;;5074121;28;20074;-79
2021/12/01 11:29:05;;;;;;;5.43;3.20;;;;;;;;;;5073931;28;20038;-79
2021/12/01 11:31:33;;;;;;;9.27;3.85;;;;;;;;;;5073526;28;20025;-77
2021/12/01 11:34:04;;;;;;;7.88;2.70;;;;;;;;;;5073958;28;20037;-79
2021/12/01 11:36:32;;;;;;;11.65;4.03;;;;;;;;;;5073881;28;20029;-78
2021/12/01 11:38:59;;;;;;;6.88;3.40;;;;;;;;;;5073688;28;20466;-79
2021/12/01 11:41:27;;;;;;;7.95;3.42;;;;;;;;;;5073646;28;20037;-78
2021/12/01 11:43:53;;;;;;;7.28;3.15;;;;;;;;;;5073792;28;20028;-79
2021/12/01 11:46:19;;;;;;;7.32;3.33;;;;;;;;;;5083997;28;20065;-80
2021/12/01 11:48:46;;;;;;;6.97;3.00;;;;;;;;;;5070209;28;20028;-81
2021/12/01 11:51:24;;;;;;;6.88;3.40;;;;;;;;;;5087235;28;20499;-80
2021/12/01 11:53:55;;;;;;;8.35;4.22;;;;;;;;;;5090029;28;20028;-79
2021/12/01 11:56:46;;;;;;;7.30;3.10;;;;;;;;;;5083290;28;20036;-79
2021/12/01 11:59:15;;;;;;;8.68;3.00;;;;;;;;;;5073306;28;20076;-79
2021/12/01 12:01:41;;;;;;;9.63;4.03;;;;;;;;;;5076996;28;20040;-79
2021/12/01 12:04:07;;;;;;;6.05;3.55;;;;;;;;;;5077302;28;20055;-78
2021/12/01 12:06:37;;;;;;;6.20;3.15;;;;;;;;;;5077294;28;20477;-77
2021/12/01 12:09:08;;;;;;;6.22;3.33;;;;;;;;;;5076004;28;20498;-77
2021/12/01 12:11:44;;;;;;;9.02;3.80;;;;;;;;;;5059699;28;20036;-77
2021/12/01 12:14:21;;;;;;;8.27;3.20;;;;;;;;;;5075684;28;20031;-77
2021/12/01 12:17:02;;;;;;;5.82;2.85;;;;;;;;;;5077149;28;20024;-79
2021/12/01 12:19:50;;;;;;;6.80;2.88;;;;;;;;;;5077316;28;20024;-79
2021/12/01 12:22:40;;;;;;;6.10;2.40;;;;;;;;;;5076813;28;20032;-79
2021/12/01 12:25:08;;;;;;;7.40;3.08;;;;;;;;;;5076199;28;20063;-78
2021/12/01 12:27:42;;;;;;;9.75;2.60;;;;;;;;;;5076737;28;20025;-78
2021/12/01 12:30:30;;;;;;;7.53;3.40;;;;;;;;;;5076493;28;20111;-78
2021/12/01 12:33:19;;;;;;;7.55;3.53;;;;;;;;;;5075463;28;20032;-78
2021/12/01 12:35:49;;;;;;;6.88;3.80;;;;;;;;;;5075321;28;20020;-80
2021/12/01 12:38:15;;;;;;;9.55;3.92;;;;;;;;;;5076080;28;20048;-78
2021/12/01 12:40:40;;;;;;;8.07;4.18;;;;;;;;;;5076210;28;20020;-80
2021/12/01 12:43:14;;;;;;;11.77;4.68;;;;;;;;;;5076538;28;20050;-77
2021/12/01 12:46:01;;;;;;;6.85;3.92;;;;;;;;;;5075810;28;20031;-80
2021/12/01 12:48:31;;;;;;;9.18;4.35;;;;;;;;;;5072385;28;20041;-78
2021/12/01 12:51:15;;;;;;;;;;;;;;;;;;5074895;28;20028;-79
2021/12/01 12:53:59;;;;;;;9.15;4.32;;;;;;;;;;5074386;28;20310;-80
2021/12/01 12:56:26;;;;;;;13.77;6.55;;;;;;;;;;5075198;28;20032;-81
2021/12/01 12:58:51;;;;;;;10.73;4.38;;;;;;;;;;5057463;28;20028;-80
2021/12/01 13:01:24;;;;;;;10.18;3.92;;;;;;;;;;5075607;28;20043;-80
2021/12/01 13:03:51;;;;;;;9.25;4.20;;;;;;;;;;5058027;28;20534;-80
2021/12/01 13:06:27;;;;;;;8.80;4.30;;;;;;;;;;5076091;28;20031;-81
2021/12/01 13:08:52;;;;;;;10.27;4.38;;;;;;;;;;5076092;28;20033;-79
2021/12/01 13:11:20;;;;;;;11.20;4.40;;;;;;;;;;5076153;28;20039;-80
2021/12/01 13:13:49;;;;;;;9.93;4.82;;;;;;;;;;5075813;28;20033;-80
2021/12/01 13:16:16;;;;;;;10.73;5.03;;;;;;;;;;5075920;28;20028;-80
2021/12/01 13:18:44;;;;;;;11.00;4.05;;;;;;;;;;5075752;28;20036;-81
2021/12/01 13:21:11;;;;;;;11.63;3.92;;;;;;;;;;5075832;28;20123;-80
2021/12/01 13:23:39;;;;;;;8.93;3.90;;;;;;;;;;5075713;28;20111;-81
2021/12/01 13:26:18;;;;;;;12.77;5.15;;;;;;;;;;5074640;28;20024;-80
2021/12/01 13:28:45;;;;;;;7.55;3.75;;;;;;;;;;5075490;28;20025;-80
2021/12/01 13:31:27;;;;;;;8.68;4.10;;;;;;;;;;5075689;28;20128;-79
2021/12/01 13:33:55;;;;;;;9.13;4.57;;;;;;;;;;5075674;28;20024;-79
2021/12/01 13:36:21;;;;;;;11.32;4.50;;;;;;;;;;5075635;28;20054;-79
2021/12/01 13:39:00;;;;;;;11.93;4.43;;;;;;;;;;5075407;28;20112;-79
2021/12/01 13:41:29;;;;;;;14.95;5.47;;;;;;;;;;5074194;28;20040;-80
2021/12/01 13:44:02;;;;;;;10.85;4.63;;;;;;;;;;5075481;28;20033;-79
2021/12/01 13:46:28;;;;;;;10.27;4.25;;;;;;;;;;5074297;28;20020;-79
2021/12/01 13:48:55;;;;;;;12.98;4.90;;;;;;;;;;5075441;28;20030;-80
2021/12/01 13:51:20;;;;;;;11.82;3.90;;;;;;;;;;5074367;28;20032;-79
2021/12/01 13:53:46;;;;;;;11.13;5.10;;;;;;;;;;5074818;28;20035;-79
2021/12/01 13:56:19;;;;;;;16.85;6.30;;;;;;;;;;5074916;28;20122;-80
2021/12/01 13:58:45;;;;;;;9.20;4.50;;;;;;;;;;5074027;28;20033;-80
2021/12/01 14:01:18;;;;;;;14.40;4.20;;;;;;;;;;5073791;28;20094;-80
2021/12/01 14:04:04;;;;;;;11.35;5.00;;;;;;;;;;5041094;28;20024;-80
2021/12/01 14:06:33;;;;;;;13.48;5.53;;;;;;;;;;5073840;28;20377;-79
2021/12/01 14:09:08;;;;;;;14.30;6.70;;;;;;;;;;5074393;28;20031;-80
2021/12/01 14:11:38;;;;;;;16.05;6.47;;;;;;;;;;5074486;28;20037;-79
2021/12/01 14:14:05;;;;;;;11.68;5.03;;;;;;;;;;5075170;28;20418;-78
2021/12/01 14:16:32;;;;;;;12.05;5.50;;;;;;;;;;5074800;28;20591;-79
2021/12/01 14:18:58;;;;;;;13.75;6.22;;;;;;;;;;5073598;28;20029;-79
2021/12/01 14:21:25;;;;;;;23.23;8.70;;;;;;;;;;5073678;28;20037;-79
2021/12/01 14:23:53;;;;;;;14.48;7.00;;;;;;;;;;5074044;28;20760;-79
2021/12/01 14:26:32;;;;;;;13.30;6.07;;;;;;;;;;5040390;28;20123;-79
2021/12/01 14:29:02;;;;;;;23.23;6.95;;;;;;;;;;5074576;28;20434;-79
2021/12/01 14:31:27;;;;;;;14.55;6.35;;;;;;;;;;5073638;28;20021;-79
2021/12/01 14:34:03;;;;;;;18.95;9.20;;;;;;;;;;5073328;28;20078;-80
2021/12/01 14:36:29;;;;;;;20.70;8.60;;;;;;;;;;5073343;28;20035;-79
2021/12/01 14:38:55;;;;;;;26.15;10.60;;;;;;;;;;5074375;28;20320;-78
2021/12/01 14:41:21;;;;;;;32.95;13.65;;;;;;;;;;5074126;28;20024;-79